createdAt,value
2024-03-10T00:01:24.519Z,91.75
2024-03-10T00:06:25.938Z,92.97
2024-03-10T00:11:27.640Z,88.54
2024-03-10T00:16:29.049Z,87.12
2024-03-10T00:21:31.012Z,89.06
2024-03-10T00:26:32.384Z,89.69
2024-03-10T00:31:33.725Z,89.35
2024-03-10T00:36:35.069Z,92.14
2024-03-10T00:41:36.737Z,92.77
2024-03-10T00:46:38.096Z,92.07
2024-03-10T00:51:39.453Z,94.22
2024-03-10T00:56:42.786Z,95.27
2024-03-10T01:01:44.371Z,96.99
2024-03-10T01:06:48.778Z,98.78
2024-03-10T01:11:51.742Z,100.00
2024-03-10T01:16:53.213Z,100.00
2024-03-10T01:21:54.593Z,100.00
2024-03-10T01:26:56.210Z,100.00
2024-03-10T01:31:57.717Z,100.00
2024-03-10T01:36:59.139Z,100.00
2024-03-10T01:42:00.483Z,100.00
2024-03-10T01:47:02.757Z,100.00
2024-03-10T01:52:04.849Z,94.94
2024-03-10T01:57:06.571Z,85.29
2024-03-10T02:02:08.045Z,78.22
2024-03-10T02:07:09.459Z,77.01
2024-03-10T02:12:11.941Z,80.29
2024-03-10T02:17:15.742Z,81.79
2024-03-10T02:22:17.158Z,85.37
2024-03-10T02:27:18.812Z,83.93
2024-03-10T02:32:38.840Z,87.39
2024-03-10T02:37:58.849Z,90.68
2024-03-10T02:43:18.882Z,90.07
2024-03-10T02:48:21.166Z,93.74
2024-03-10T02:53:22.917Z,95.59
2024-03-10T02:58:24.314Z,96.65
2024-03-10T03:03:25.741Z,98.84
2024-03-10T03:08:27.158Z,98.85
2024-03-10T03:13:28.878Z,93.77
2024-03-10T03:18:30.447Z,94.33
2024-03-10T03:23:31.880Z,96.19
2024-03-10T03:28:33.324Z,97.14
2024-03-10T03:33:34.681Z,95.54
2024-03-10T03:38:36.470Z,91.22
2024-03-10T03:43:37.859Z,87.08
2024-03-10T03:48:39.605Z,82.29
2024-03-10T03:53:40.961Z,76.96
2024-03-10T03:58:42.771Z,76.05
2024-03-10T04:03:44.186Z,74.90
2024-03-10T04:08:46.281Z,75.77
2024-03-10T04:13:47.712Z,75.02
2024-03-10T04:18:50.386Z,81.63
2024-03-10T04:23:52.700Z,88.22
2024-03-10T04:28:55.203Z,92.36
2024-03-10T04:33:57.353Z,95.87
2024-03-10T04:39:00.783Z,97.58
2024-03-10T04:44:03.604Z,100.00
2024-03-10T04:49:05.147Z,100.00
2024-03-10T04:54:06.603Z,100.00
2024-03-10T04:59:08.058Z,100.00
2024-03-10T05:04:10.675Z,100.00
2024-03-10T05:09:12.292Z,100.00
2024-03-10T05:14:14.312Z,100.00
2024-03-10T05:19:15.741Z,100.00
2024-03-10T05:24:17.073Z,100.00
2024-03-10T05:29:18.461Z,100.00
2024-03-10T05:34:21.110Z,100.00
2024-03-10T05:39:23.019Z,100.00
2024-03-10T05:44:24.380Z,100.00
2024-03-10T05:49:26.765Z,100.00
2024-03-10T05:54:28.188Z,100.00
2024-03-10T05:59:29.553Z,100.00
2024-03-10T06:04:31.704Z,100.00
2024-03-10T06:09:35.609Z,100.00
2024-03-10T06:14:37.991Z,100.00
2024-03-10T06:19:58.368Z,100.00
2024-03-10T06:25:18.217Z,100.00
2024-03-10T06:30:22.337Z,100.00
2024-03-10T06:35:23.906Z,100.00
2024-03-10T06:40:25.335Z,100.00
2024-03-10T06:45:27.179Z,100.00
2024-03-10T06:50:29.724Z,100.00
2024-03-10T06:55:31.240Z,100.00
2024-03-10T07:00:33.893Z,97.72
2024-03-10T07:05:39.841Z,92.76
2024-03-10T07:10:42.633Z,92.13
2024-03-10T07:15:44.073Z,94.01
2024-03-10T07:20:47.047Z,96.41
2024-03-10T07:25:48.853Z,93.91
2024-03-10T07:30:50.222Z,91.81
2024-03-10T07:35:51.637Z,86.62
2024-03-10T07:40:55.407Z,82.67
2024-03-10T07:45:59.535Z,80.36
2024-03-10T07:51:00.928Z,79.60
2024-03-10T07:56:02.310Z,73.66
2024-03-10T08:01:04.883Z,63.51
2024-03-10T08:06:08.600Z,58.55
2024-03-10T08:11:10.725Z,61.68
2024-03-10T08:16:12.137Z,63.31
2024-03-10T08:21:13.628Z,66.64
2024-03-10T08:26:15.029Z,65.36
2024-03-10T08:31:17.735Z,65.56
2024-03-10T08:36:19.231Z,65.60
2024-03-10T08:41:20.696Z,61.72
2024-03-10T08:46:22.602Z,54.38
2024-03-10T08:51:24.387Z,52.84
2024-03-10T08:56:25.800Z,51.54
2024-03-10T09:01:27.415Z,53.94
2024-03-10T09:06:28.802Z,54.33
2024-03-10T09:11:31.556Z,47.44
2024-03-10T09:16:33.151Z,45.21
2024-03-10T09:21:34.558Z,46.27
2024-03-10T09:26:36.781Z,48.63
2024-03-10T09:31:41.170Z,46.48
2024-03-10T09:36:43.510Z,46.39
2024-03-10T09:41:45.510Z,45.35
2024-03-10T09:46:52.156Z,48.52
2024-03-10T09:51:54.497Z,50.87
2024-03-10T09:56:55.964Z,51.45
2024-03-10T10:02:00.209Z,51.92
2024-03-10T10:07:04.293Z,48.85
2024-03-10T10:12:06.037Z,46.67
2024-03-10T10:17:15.705Z,45.85
2024-03-10T10:22:17.132Z,45.51
2024-03-10T10:27:18.526Z,42.86
2024-03-10T10:32:21.547Z,39.93
2024-03-10T10:37:23.158Z,41.38
2024-03-10T10:42:33.577Z,44.91
2024-03-10T10:47:37.816Z,44.99
2024-03-10T10:52:43.238Z,45.99
2024-03-10T10:57:45.711Z,47.96
2024-03-10T11:02:47.069Z,48.45
2024-03-10T11:07:49.860Z,48.37
2024-03-10T11:13:07.654Z,45.70
2024-03-10T11:18:27.582Z,38.33
2024-03-10T11:23:40.145Z,40.90
2024-03-10T11:28:52.145Z,36.93
2024-03-10T11:33:54.802Z,39.99
2024-03-10T11:38:56.963Z,41.22
2024-03-10T11:43:58.961Z,38.05
2024-03-10T11:49:02.296Z,41.63
2024-03-10T11:54:05.165Z,43.75
2024-03-10T11:59:06.698Z,43.21
2024-03-10T12:04:08.127Z,44.94
2024-03-10T12:09:17.816Z,43.79
2024-03-10T12:14:19.292Z,43.36
2024-03-10T12:19:22.352Z,43.67
2024-03-10T12:24:23.884Z,43.50
2024-03-10T12:29:25.260Z,45.17
2024-03-10T12:34:26.637Z,45.21
2024-03-10T12:39:27.975Z,44.17
2024-03-10T12:44:29.668Z,44.77
2024-03-10T12:49:31.311Z,45.40
2024-03-10T12:54:32.667Z,45.79
2024-03-10T12:59:35.520Z,44.71
2024-03-10T13:04:37.447Z,44.71
2024-03-10T13:09:39.340Z,43.74
2024-03-10T13:14:41.184Z,43.20
2024-03-10T13:19:43.346Z,42.51
2024-03-10T13:24:44.717Z,43.94
2024-03-10T13:29:46.730Z,44.47
2024-03-10T13:34:48.155Z,44.90
2024-03-10T13:39:49.502Z,45.57
2024-03-10T13:44:52.213Z,45.98
2024-03-10T13:49:53.605Z,45.84
2024-03-10T13:54:55.035Z,46.15
2024-03-10T13:59:56.717Z,45.91
2024-03-10T14:04:59.840Z,46.10
2024-03-10T14:10:01.248Z,47.73
2024-03-10T14:15:03.047Z,47.86
2024-03-10T14:20:06.015Z,48.66
2024-03-10T14:25:09.776Z,48.56
2024-03-10T14:30:12.015Z,48.20
2024-03-10T14:35:17.004Z,48.16
2024-03-10T14:40:23.244Z,49.20
2024-03-10T14:45:25.230Z,49.46
2024-03-10T14:50:27.552Z,50.35
2024-03-10T14:55:29.012Z,50.07
2024-03-10T15:00:39.522Z,49.94
2024-03-10T15:05:43.380Z,50.94
2024-03-10T15:10:47.433Z,50.59
2024-03-10T15:15:49.380Z,50.62
2024-03-10T15:20:50.997Z,51.18
2024-03-10T15:25:52.412Z,51.34
2024-03-10T15:30:53.790Z,51.93
2024-03-10T15:35:56.670Z,52.82
2024-03-10T15:40:58.199Z,52.28
2024-03-10T15:45:59.554Z,53.24
2024-03-10T15:51:00.919Z,53.20
2024-03-10T15:56:02.442Z,53.00
2024-03-10T16:01:03.915Z,54.00
2024-03-10T16:06:05.470Z,54.45
2024-03-10T16:11:06.920Z,55.05
2024-03-10T16:16:08.921Z,55.46
2024-03-10T16:21:14.934Z,56.13
2024-03-10T16:26:19.482Z,56.72
2024-03-10T16:31:21.134Z,56.58
2024-03-10T16:36:22.565Z,57.28
2024-03-10T16:41:24.704Z,57.26
2024-03-10T16:46:26.125Z,57.40
2024-03-10T16:51:28.914Z,58.26
2024-03-10T16:56:30.578Z,58.63
2024-03-10T17:01:32.012Z,59.39
2024-03-10T17:06:34.601Z,59.30
2024-03-10T17:11:36.189Z,61.12
2024-03-10T17:16:38.159Z,60.76
2024-03-10T17:21:39.539Z,63.06
2024-03-10T17:26:41.054Z,64.65
2024-03-10T17:31:42.636Z,68.10
2024-03-10T17:36:44.058Z,69.66
2024-03-10T17:41:45.428Z,69.98
2024-03-10T17:46:46.782Z,70.05
2024-03-10T17:51:48.157Z,70.13
2024-03-10T17:56:50.716Z,71.29
2024-03-10T18:01:52.082Z,73.86
2024-03-10T18:06:53.743Z,76.30
2024-03-10T18:11:56.921Z,77.33
2024-03-10T18:17:01.402Z,77.71
2024-03-10T18:22:02.907Z,80.67
2024-03-10T18:27:05.781Z,83.68
2024-03-10T18:32:07.200Z,81.62
2024-03-10T18:37:10.172Z,82.18
2024-03-10T18:42:11.832Z,83.24
2024-03-10T18:47:13.289Z,84.66
2024-03-10T18:52:15.339Z,84.58
2024-03-10T18:57:19.456Z,84.94
2024-03-10T19:02:20.954Z,85.51
2024-03-10T19:07:22.329Z,87.19
2024-03-10T19:12:23.779Z,87.33
2024-03-10T19:17:27.735Z,87.66
2024-03-10T19:22:29.191Z,88.53
2024-03-10T19:27:30.646Z,88.32
2024-03-10T19:32:32.887Z,88.90
2024-03-10T19:37:36.213Z,89.27
2024-03-10T19:42:37.610Z,90.09
2024-03-10T19:47:42.122Z,91.91
2024-03-10T19:52:44.413Z,90.22
2024-03-10T19:57:45.787Z,93.75
2024-03-10T20:02:48.200Z,92.37
2024-03-10T20:07:49.940Z,93.72
2024-03-10T20:12:52.552Z,94.00
2024-03-10T20:17:55.479Z,93.05
2024-03-10T20:22:57.183Z,93.03
2024-03-10T20:27:58.861Z,93.25
2024-03-10T20:33:00.712Z,96.10
2024-03-10T20:38:02.269Z,98.25
2024-03-10T20:43:03.669Z,100.00
2024-03-10T20:48:05.363Z,99.31
2024-03-10T20:53:07.359Z,99.72
2024-03-10T20:58:09.047Z,99.42
2024-03-10T21:03:10.703Z,98.77
2024-03-10T21:08:12.550Z,98.34
2024-03-10T21:13:13.940Z,98.22
2024-03-10T21:18:15.308Z,97.99
2024-03-10T21:23:16.734Z,97.83
2024-03-10T21:28:18.918Z,99.39
2024-03-10T21:33:22.617Z,100.00
2024-03-10T21:38:24.090Z,100.00
2024-03-10T21:43:28.181Z,100.00
2024-03-10T21:48:30.172Z,100.00
2024-03-10T21:53:32.006Z,100.00
2024-03-10T21:58:33.945Z,100.00
2024-03-10T22:03:36.847Z,100.00
2024-03-10T22:08:40.330Z,100.00
2024-03-10T22:13:41.801Z,100.00
2024-03-10T22:18:44.869Z,100.00
2024-03-10T22:23:46.462Z,100.00
2024-03-10T22:28:47.935Z,100.00
2024-03-10T22:33:49.279Z,100.00
2024-03-10T22:38:50.681Z,100.00
2024-03-10T22:43:52.086Z,100.00
2024-03-10T22:48:53.432Z,100.00
2024-03-10T22:53:54.952Z,100.00
2024-03-10T22:58:57.686Z,100.00
2024-03-10T23:03:59.068Z,100.00
2024-03-10T23:09:00.605Z,100.00
2024-03-10T23:14:02.104Z,100.00
2024-03-10T23:19:03.567Z,100.00
2024-03-10T23:24:06.189Z,100.00
2024-03-10T23:29:07.728Z,100.00
2024-03-10T23:34:09.458Z,100.00
2024-03-10T23:39:12.882Z,100.00
2024-03-10T23:44:14.332Z,100.00
2024-03-10T23:49:15.751Z,100.00
2024-03-10T23:54:17.085Z,100.00
2024-03-10T23:59:19.484Z,100.00
